Time;durP1;ratioP1;P1;durP2;ratioP2;P2;SDS_P1;SDS_P2;PMS_P1;PMS_P2;Temp;Humidity;BMP_temperature;BMP_pressure;BME280_temperature;BME280_humidity;BME280_pressure;Samples;Min_cycle;Max_cycle;Signal;HPM_P1;HPM_P2
2023/04/22 00:02:25;;;;;;;71.07;33.60;;;7.20;99.90;;;;;;5041427;28;20302;-58
2023/04/22 00:04:56;;;;;;;75.70;33.97;;;7.20;99.90;;;;;;5039961;28;20224;-58
2023/04/22 00:07:24;;;;;;;67.93;32.97;;;7.20;99.90;;;;;;5049344;28;20647;-58
2023/04/22 00:09:53;;;;;;;75.00;33.80;;;7.20;99.90;;;;;;5051012;28;20197;-57
2023/04/22 00:12:22;;;;;;;79.80;34.03;;;7.20;99.90;;;;;;5047351;28;20641;-58
2023/04/22 00:14:51;;;;;;;72.63;33.70;;;7.20;99.90;;;;;;5047976;28;20224;-57
2023/04/22 00:17:19;;;;;;;72.90;34.57;;;7.20;99.90;;;;;;5044633;28;20232;-58
2023/04/22 00:19:47;;;;;;;75.77;34.73;;;7.20;99.90;;;;;;5045829;28;20217;-58
2023/04/22 00:22:15;;;;;;;72.80;35.30;;;7.20;99.90;;;;;;5047247;28;20205;-58
2023/04/22 00:24:44;;;;;;;74.53;34.27;;;7.20;99.90;;;;;;5045113;28;20261;-58
2023/04/22 00:27:12;;;;;;;79.87;35.10;;;7.20;99.90;;;;;;5051058;28;20621;-57
2023/04/22 00:29:41;;;;;;;78.00;34.27;;;7.30;99.90;;;;;;5046059;28;20221;-57
2023/04/22 00:32:10;;;;;;;67.03;33.57;;;7.30;99.90;;;;;;5051352;28;20282;-57
2023/04/22 00:34:38;;;;;;;77.53;35.00;;;7.20;99.90;;;;;;5051035;28;20192;-57
2023/04/22 00:37:06;;;;;;;66.00;32.73;;;7.30;99.90;;;;;;5044017;28;20271;-57
2023/04/22 00:39:37;;;;;;;74.17;34.50;;;7.30;99.90;;;;;;5050091;28;20220;-58
2023/04/22 00:42:07;;;;;;;75.87;33.70;;;7.20;99.90;;;;;;5049988;28;20299;-57
2023/04/22 00:44:40;;;;;;;79.13;35.73;;;7.20;99.90;;;;;;5050318;28;20311;-57
2023/04/22 00:47:10;;;;;;;81.50;35.00;;;7.10;99.90;;;;;;5040588;28;20267;-57
2023/04/22 00:49:39;;;;;;;107.13;36.37;;;7.20;99.90;;;;;;5050646;28;20208;-58
2023/04/22 00:52:08;;;;;;;81.63;34.33;;;7.20;99.90;;;;;;5047288;28;20205;-57
2023/04/22 00:54:36;;;;;;;130.87;36.40;;;7.20;99.90;;;;;;5049259;28;20775;-57
2023/04/22 00:57:05;;;;;;;76.43;35.67;;;7.20;99.90;;;;;;5045065;28;20213;-57
2023/04/22 00:59:34;;;;;;;84.77;35.23;;;7.10;99.90;;;;;;5047545;28;20213;-58
2023/04/22 01:02:03;;;;;;;89.87;35.13;;;7.10;99.90;;;;;;5049230;28;20562;-57
2023/04/22 01:04:33;;;;;;;97.37;35.40;;;7.10;99.90;;;;;;5043795;28;20195;-57
2023/04/22 01:07:02;;;;;;;98.17;34.93;;;7.00;99.90;;;;;;5047673;28;20246;-57
2023/04/22 01:09:30;;;;;;;94.50;36.00;;;7.00;99.90;;;;;;5044893;28;20637;-58
2023/04/22 01:12:00;;;;;;;78.73;33.97;;;7.00;99.90;;;;;;5044022;28;20249;-58
2023/04/22 01:14:28;;;;;;;90.37;34.03;;;7.00;99.90;;;;;;5045743;28;20216;-57
2023/04/22 01:16:57;;;;;;;86.90;34.33;;;7.00;99.90;;;;;;5045546;28;20259;-57
2023/04/22 01:19:28;;;;;;;102.30;34.60;;;7.00;99.90;;;;;;5044685;28;20199;-58
2023/04/22 01:21:59;;;;;;;90.13;33.83;;;6.90;99.90;;;;;;5047937;28;20193;-57
2023/04/22 01:24:29;;;;;;;95.80;34.97;;;6.80;99.90;;;;;;5039408;28;20223;-57
2023/04/22 01:26:57;;;;;;;122.10;35.10;;;6.80;99.90;;;;;;5044365;28;20657;-57
2023/04/22 01:29:26;;;;;;;88.43;32.13;;;6.80;99.90;;;;;;5048679;28;20713;-57
2023/04/22 01:31:56;;;;;;;116.07;33.10;;;6.80;99.90;;;;;;5042412;28;20221;-58
2023/04/22 01:34:24;;;;;;;76.93;32.43;;;6.80;99.90;;;;;;5041745;28;20197;-57
2023/04/22 01:36:53;;;;;;;91.43;33.67;;;6.80;99.90;;;;;;5043124;28;20221;-58
2023/04/22 01:39:21;;;;;;;69.03;32.80;;;6.80;99.90;;;;;;5041212;28;20274;-57
2023/04/22 01:41:51;;;;;;;69.10;30.30;;;6.80;99.90;;;;;;5041376;28;20248;-58
2023/04/22 01:44:19;;;;;;;73.73;30.03;;;6.70;99.90;;;;;;5045211;28;20248;-57
2023/04/22 01:46:47;;;;;;;60.80;31.77;;;6.70;99.90;;;;;;5047338;28;20291;-57
2023/04/22 01:49:15;;;;;;;68.30;32.40;;;6.70;99.90;;;;;;5048978;28;20246;-58
2023/04/22 01:51:44;;;;;;;61.93;32.37;;;6.70;99.90;;;;;;5047479;28;20728;-57
2023/04/22 01:54:12;;;;;;;58.20;31.83;;;6.70;99.90;;;;;;5041979;28;20220;-57
2023/04/22 01:56:42;;;;;;;64.60;32.33;;;6.70;99.90;;;;;;5042267;28;20630;-56
2023/04/22 01:59:12;;;;;;;61.30;31.33;;;6.70;99.90;;;;;;5046062;28;20218;-57
2023/04/22 02:01:40;;;;;;;60.87;31.93;;;6.70;99.90;;;;;;5050356;28;20189;-58
2023/04/22 02:04:08;;;;;;;65.93;33.27;;;6.70;99.90;;;;;;5044664;28;20610;-57
2023/04/22 02:06:36;;;;;;;60.53;30.73;;;6.60;99.90;;;;;;5044820;28;20291;-58
2023/04/22 02:09:05;;;;;;;55.53;30.67;;;6.60;99.90;;;;;;5051415;28;20212;-57
2023/04/22 02:11:33;;;;;;;56.80;30.77;;;6.60;99.90;;;;;;5050064;28;20224;-58
2023/04/22 02:14:01;;;;;;;63.13;32.33;;;6.60;99.90;;;;;;5048298;28;20217;-57
2023/04/22 02:16:31;;;;;;;56.93;30.10;;;6.50;99.90;;;;;;5052096;28;20270;-57
2023/04/22 02:18:59;;;;;;;56.10;29.07;;;6.50;99.90;;;;;;5049948;28;20236;-57
2023/04/22 02:21:30;;;;;;;56.13;29.23;;;6.50;99.90;;;;;;5046263;28;20694;-57
2023/04/22 02:23:59;;;;;;;63.57;31.83;;;6.40;99.90;;;;;;5046236;28;20287;-58
2023/04/22 02:26:29;;;;;;;55.73;30.93;;;6.40;99.90;;;;;;5069230;28;20278;-58
2023/04/22 02:28:57;;;;;;;57.83;29.73;;;6.40;99.90;;;;;;5043903;28;20324;-57
2023/04/22 02:31:26;;;;;;;58.00;30.00;;;6.40;99.90;;;;;;5045048;28;20211;-57
2023/04/22 02:33:56;;;;;;;54.90;29.77;;;6.40;99.90;;;;;;5053260;28;20263;-57
2023/04/22 02:36:24;;;;;;;60.30;31.07;;;6.40;99.90;;;;;;5042057;28;20217;-57
2023/04/22 02:38:52;;;;;;;54.87;30.57;;;6.40;99.90;;;;;;5042854;28;20612;-57
2023/04/22 02:41:20;;;;;;;54.20;30.27;;;6.40;99.90;;;;;;5047533;28;20279;-57
2023/04/22 02:43:51;;;;;;;46.27;27.73;;;6.40;99.90;;;;;;5048451;28;20216;-57
2023/04/22 02:46:19;;;;;;;49.10;26.50;;;6.40;99.90;;;;;;5050562;28;20237;-57
2023/04/22 02:48:48;;;;;;;56.87;28.87;;;6.40;99.90;;;;;;5045277;28;20244;-56
2023/04/22 02:51:18;;;;;;;87.37;28.87;;;6.40;99.90;;;;;;5043415;28;20235;-57
2023/04/22 02:53:46;;;;;;;72.73;28.47;;;6.30;99.90;;;;;;5048448;28;20282;-57
2023/04/22 02:56:15;;;;;;;165.40;28.80;;;6.40;99.90;;;;;;5049820;28;20774;-57
2023/04/22 02:58:43;;;;;;;112.93;28.87;;;6.30;99.90;;;;;;5045760;28;20658;-57
2023/04/22 03:01:11;;;;;;;90.40;29.27;;;6.30;99.90;;;;;;5051120;28;20695;-58
2023/04/22 03:03:39;;;;;;;61.40;29.23;;;6.30;99.90;;;;;;5042097;28;20670;-57
2023/04/22 03:06:08;;;;;;;65.80;29.67;;;6.30;99.90;;;;;;5043292;28;20703;-57
2023/04/22 03:08:39;;;;;;;63.23;29.83;;;6.30;99.90;;;;;;5050204;28;20587;-57
2023/04/22 03:11:07;;;;;;;58.80;30.07;;;6.30;99.90;;;;;;5044278;28;20317;-57
2023/04/22 03:13:35;;;;;;;61.63;30.20;;;6.40;99.90;;;;;;5048842;28;20586;-57
2023/04/22 03:16:03;;;;;;;59.80;30.73;;;6.40;99.90;;;;;;5047309;28;20705;-57
2023/04/22 03:18:32;;;;;;;58.37;30.43;;;6.40;99.90;;;;;;5046733;28;20367;-57
2023/04/22 03:21:00;;;;;;;58.80;29.73;;;6.40;99.90;;;;;;5044021;28;20225;-57
2023/04/22 03:23:31;;;;;;;58.83;30.20;;;6.40;99.90;;;;;;5051782;28;20208;-57
2023/04/22 03:26:01;;;;;;;59.37;30.33;;;6.40;99.90;;;;;;5051618;28;20232;-57
2023/04/22 03:28:29;;;;;;;57.50;29.87;;;6.40;99.90;;;;;;5044732;28;20189;-57
2023/04/22 03:30:57;;;;;;;52.33;28.63;;;6.30;99.90;;;;;;5045773;28;20251;-57
2023/04/22 03:33:26;;;;;;;54.10;28.90;;;6.30;99.90;;;;;;5049481;28;20216;-57
2023/04/22 03:35:54;;;;;;;52.67;28.30;;;6.20;99.90;;;;;;5045325;28;20213;-58
2023/04/22 03:38:23;;;;;;;52.23;27.93;;;6.30;99.90;;;;;;5048230;28;20270;-57
2023/04/22 03:40:51;;;;;;;55.43;29.63;;;6.20;99.90;;;;;;5041936;28;20221;-57
2023/04/22 03:43:20;;;;;;;58.83;29.83;;;6.30;99.90;;;;;;5048242;28;20320;-57
2023/04/22 03:45:51;;;;;;;61.17;30.37;;;6.20;99.90;;;;;;5045970;28;20228;-57
2023/04/22 03:48:20;;;;;;;62.50;30.67;;;6.20;99.90;;;;;;5047180;28;20224;-57
2023/04/22 03:50:48;;;;;;;56.00;28.80;;;6.20;99.90;;;;;;5051234;28;20209;-58
2023/04/22 03:53:16;;;;;;;57.93;29.63;;;6.20;99.90;;;;;;5047326;28;20252;-57
2023/04/22 03:55:45;;;;;;;57.07;30.17;;;6.20;99.90;;;;;;5053027;28;20265;-57
2023/04/22 03:58:13;;;;;;;56.33;29.77;;;6.20;99.90;;;;;;5048913;28;20197;-57
2023/04/22 04:00:43;;;;;;;59.63;30.13;;;6.30;99.90;;;;;;5047705;28;20235;-58
2023/04/22 04:03:11;;;;;;;59.23;30.10;;;6.20;99.90;;;;;;5047896;28;20732;-57
2023/04/22 04:05:40;;;;;;;57.73;31.07;;;6.30;99.90;;;;;;5043600;28;20217;-57
2023/04/22 04:08:08;;;;;;;57.07;29.20;;;6.20;99.90;;;;;;5045020;28;20227;-57
2023/04/22 04:10:36;;;;;;;55.70;30.07;;;6.20;99.90;;;;;;5051015;28;20597;-57
2023/04/22 04:13:05;;;;;;;55.63;30.47;;;6.20;99.90;;;;;;5044391;28;20194;-57
2023/04/22 04:15:34;;;;;;;57.63;29.80;;;6.20;99.90;;;;;;5045227;28;20228;-57
2023/04/22 04:18:08;;;;;;;50.43;28.97;;;6.30;99.90;;;;;;5047998;28;20232;-57
2023/04/22 04:20:36;;;;;;;50.50;27.37;;;6.20;99.90;;;;;;5047040;28;20235;-57
2023/04/22 04:23:05;;;;;;;48.40;28.07;;;6.20;99.90;;;;;;5045112;28;20224;-57
2023/04/22 04:25:37;;;;;;;50.43;27.97;;;6.20;99.90;;;;;;5047524;28;20262;-57
2023/04/22 04:28:08;;;;;;;51.23;29.57;;;6.20;99.90;;;;;;5044615;28;20216;-57
2023/04/22 04:30:36;;;;;;;55.60;30.57;;;6.10;99.90;;;;;;5047768;28;20315;-56
2023/04/22 04:33:06;;;;;;;53.20;29.93;;;6.10;99.90;;;;;;5047238;28;20259;-58
2023/04/22 04:35:36;;;;;;;57.40;30.93;;;6.10;99.90;;;;;;5044506;28;20274;-57
2023/04/22 04:38:05;;;;;;;53.77;29.20;;;6.10;99.90;;;;;;5045337;28;20225;-57
2023/04/22 04:40:34;;;;;;;56.67;30.27;;;6.10;99.90;;;;;;5046943;28;20212;-57
2023/04/22 04:43:07;;;;;;;67.50;32.83;;;6.20;99.90;;;;;;5045764;28;20246;-57
2023/04/22 04:45:36;;;;;;;58.33;31.47;;;6.20;99.90;;;;;;5049313;28;20223;-57
2023/04/22 04:48:07;;;;;;;62.60;31.90;;;6.20;99.90;;;;;;5047977;28;20221;-57
2023/04/22 04:50:36;;;;;;;57.07;30.73;;;6.30;99.90;;;;;;5045116;28;20262;-57
2023/04/22 04:53:04;;;;;;;57.10;31.47;;;6.30;99.90;;;;;;5051195;28;20217;-57
2023/04/22 04:55:32;;;;;;;63.07;31.57;;;6.30;99.90;;;;;;5047758;28;20198;-57
2023/04/22 04:58:00;;;;;;;62.80;32.73;;;6.30;99.90;;;;;;5044410;28;20221;-57
2023/04/22 05:00:29;;;;;;;61.53;31.83;;;6.30;99.90;;;;;;5047967;28;20220;-57
2023/04/22 05:02:57;;;;;;;65.67;32.80;;;6.40;99.90;;;;;;5065262;28;20208;-57
2023/04/22 05:05:27;;;;;;;65.77;33.20;;;6.40;99.90;;;;;;5047429;28;20594;-57
2023/04/22 05:07:56;;;;;;;62.13;33.00;;;6.40;99.90;;;;;;5047987;28;20300;-57
2023/04/22 05:10:27;;;;;;;72.67;34.43;;;6.40;99.90;;;;;;5045925;28;20243;-57
2023/04/22 05:12:55;;;;;;;68.90;33.27;;;6.50;99.90;;;;;;5046354;28;20189;-57
2023/04/22 05:15:23;;;;;;;72.10;34.73;;;6.50;99.90;;;;;;5043578;28;20763;-57
2023/04/22 05:17:51;;;;;;;70.80;34.33;;;6.50;99.90;;;;;;5047482;28;20225;-57
2023/04/22 05:20:21;;;;;;;69.33;33.83;;;6.50;99.90;;;;;;5049827;28;20255;-57
2023/04/22 05:22:51;;;;;;;69.37;34.00;;;6.60;99.90;;;;;;5040776;28;20225;-57
2023/04/22 05:25:19;;;;;;;74.20;34.00;;;6.60;99.90;;;;;;5043976;28;20185;-57
2023/04/22 05:27:47;;;;;;;70.33;34.50;;;6.70;99.90;;;;;;5031504;28;20680;-57
2023/04/22 05:30:15;;;;;;;71.97;36.33;;;6.70;99.90;;;;;;5044868;28;20220;-57
2023/04/22 05:32:43;;;;;;;72.37;34.97;;;6.80;99.90;;;;;;5045870;28;20598;-57
2023/04/22 05:35:11;;;;;;;72.17;33.43;;;6.80;99.90;;;;;;5047215;28;20582;-57
2023/04/22 05:37:40;;;;;;;69.47;34.63;;;6.80;99.90;;;;;;5042157;28;20594;-57
2023/04/22 05:40:10;;;;;;;68.07;34.30;;;6.90;99.90;;;;;;5045388;28;20224;-57
2023/04/22 05:42:38;;;;;;;73.67;37.10;;;6.90;99.90;;;;;;5043805;28;20529;-57
2023/04/22 05:45:08;;;;;;;79.10;40.30;;;7.00;99.90;;;;;;5041029;28;20266;-57
2023/04/22 05:47:38;;;;;;;83.63;42.17;;;7.00;99.90;;;;;;5048235;28;20714;-57
2023/04/22 05:50:08;;;;;;;79.37;39.37;;;7.10;99.90;;;;;;5049885;28;20255;-57
2023/04/22 05:52:36;;;;;;;72.97;35.17;;;7.10;99.90;;;;;;5046547;28;20200;-57
2023/04/22 05:55:07;;;;;;;66.23;34.50;;;7.20;99.90;;;;;;5048659;28;20204;-56
2023/04/22 05:57:37;;;;;;;63.00;32.77;;;7.30;99.90;;;;;;5042795;28;20208;-57
2023/04/22 06:00:07;;;;;;;70.70;35.07;;;7.40;99.90;;;;;;5042175;28;20250;-57
2023/04/22 06:02:35;;;;;;;66.00;35.43;;;7.50;99.90;;;;;;5044316;28;20316;-57
2023/04/22 06:05:03;;;;;;;66.90;35.73;;;7.60;99.90;;;;;;5043535;28;20220;-57
2023/04/22 06:07:32;;;;;;;67.10;35.23;;;7.60;99.90;;;;;;5046334;28;20722;-57
2023/04/22 06:10:00;;;;;;;64.90;34.93;;;7.70;99.90;;;;;;5045287;28;20643;-57
2023/04/22 06:12:33;;;;;;;65.43;34.87;;;7.70;99.90;;;;;;5045309;28;20562;-57
2023/04/22 06:15:03;;;;;;;62.57;34.20;;;7.80;99.90;;;;;;5047693;28;20224;-57
2023/04/22 06:17:33;;;;;;;60.60;34.40;;;7.90;99.90;;;;;;5039738;28;20320;-58
2023/04/22 06:20:01;;;;;;;63.17;35.17;;;8.00;99.90;;;;;;5046501;28;20220;-58
2023/04/22 06:22:29;;;;;;;61.57;33.70;;;8.10;99.90;;;;;;5036557;28;20188;-57
2023/04/22 06:24:57;;;;;;;59.30;34.67;;;8.10;99.90;;;;;;5042474;28;20643;-58
2023/04/22 06:27:25;;;;;;;53.63;31.87;;;8.20;99.90;;;;;;5045674;28;20237;-57
2023/04/22 06:29:53;;;;;;;51.43;31.67;;;8.20;99.90;;;;;;5038787;28;20244;-58
2023/04/22 06:32:23;;;;;;;49.70;30.03;;;8.20;99.90;;;;;;5038380;28;20229;-57
2023/04/22 06:34:51;;;;;;;48.70;30.87;;;8.20;99.90;;;;;;5038768;28;20840;-58
2023/04/22 06:37:19;;;;;;;53.73;32.00;;;8.30;99.90;;;;;;5044786;28;20557;-58
2023/04/22 06:39:48;;;;;;;51.33;30.70;;;8.50;99.90;;;;;;5040495;28;20217;-57
2023/04/22 06:42:16;;;;;;;52.73;32.00;;;8.60;99.90;;;;;;5043471;28;20217;-58
2023/04/22 06:44:44;;;;;;;52.37;31.57;;;8.60;99.90;;;;;;5047019;28;20232;-58
2023/04/22 06:47:12;;;;;;;56.33;33.20;;;8.70;99.90;;;;;;5045930;28;20232;-57
2023/04/22 06:49:43;;;;;;;53.90;32.90;;;8.80;99.90;;;;;;5047874;28;20184;-58
2023/04/22 06:52:11;;;;;;;51.70;32.13;;;9.00;99.90;;;;;;5048594;28;20259;-58
2023/04/22 06:54:40;;;;;;;54.33;32.73;;;9.00;99.90;;;;;;5043733;28;20910;-58
2023/04/22 06:57:08;;;;;;;57.27;34.47;;;9.00;99.90;;;;;;5043075;28;20278;-58
2023/04/22 06:59:36;;;;;;;53.47;32.60;;;8.90;99.90;;;;;;5046839;28;20228;-58
2023/04/22 07:02:05;;;;;;;56.73;33.27;;;8.90;99.90;;;;;;5049951;28;20304;-58
2023/04/22 07:04:33;;;;;;;53.50;33.27;;;9.00;99.90;;;;;;5045657;28;20242;-58
2023/04/22 07:07:03;;;;;;;54.30;32.67;;;9.00;99.90;;;;;;5045760;28;20287;-58
2023/04/22 07:09:32;;;;;;;55.17;32.33;;;9.10;99.90;;;;;;5060430;28;20243;-58
2023/04/22 07:12:01;;;;;;;50.27;31.53;;;9.20;99.90;;;;;;5047690;28;20222;-58
2023/04/22 07:14:29;;;;;;;59.23;34.23;;;9.20;99.90;;;;;;5045734;28;20822;-58
2023/04/22 07:16:57;;;;;;;52.20;32.37;;;9.20;99.90;;;;;;5048134;28;20270;-58
2023/04/22 07:19:26;;;;;;;54.33;33.17;;;9.20;99.90;;;;;;5053619;28;20647;-58
2023/04/22 07:21:54;;;;;;;52.20;32.70;;;9.20;99.90;;;;;;5049231;28;20319;-58
2023/04/22 07:24:24;;;;;;;58.33;34.33;;;9.30;99.90;;;;;;5045450;28;20228;-57
2023/04/22 07:26:52;;;;;;;57.63;35.07;;;9.40;99.90;;;;;;5045273;28;20343;-57
2023/04/22 07:29:20;;;;;;;60.47;36.23;;;9.50;99.90;;;;;;5049569;28;20223;-58
2023/04/22 07:31:49;;;;;;;63.63;37.33;;;9.60;99.90;;;;;;5046138;28;20220;-58
2023/04/22 07:34:18;;;;;;;67.77;36.93;;;9.80;99.90;;;;;;5047685;28;20238;-57
2023/04/22 07:36:46;;;;;;;64.37;37.00;;;10.10;99.90;;;;;;5050696;28;20213;-58
2023/04/22 07:39:14;;;;;;;56.90;35.00;;;10.20;99.90;;;;;;5045391;28;20220;-57
2023/04/22 07:41:44;;;;;;;55.00;35.23;;;10.40;99.90;;;;;;5040365;28;20220;-58
2023/04/22 07:44:17;;;;;;;60.03;34.30;;;10.40;99.90;;;;;;5045331;28;20236;-58
2023/04/22 07:46:45;;;;;;;54.43;33.20;;;10.40;99.90;;;;;;5047079;28;20253;-57
2023/04/22 07:49:14;;;;;;;59.43;33.83;;;10.50;99.90;;;;;;5043288;28;20251;-57
2023/04/22 07:51:44;;;;;;;52.50;33.53;;;10.70;99.90;;;;;;5048530;28;20251;-58
2023/04/22 07:54:12;;;;;;;49.77;31.50;;;10.90;99.90;;;;;;5049376;28;20232;-58
2023/04/22 07:56:40;;;;;;;46.77;29.37;;;11.10;99.90;;;;;;5037517;28;20236;-57
2023/04/22 07:59:10;;;;;;;43.07;29.67;;;11.20;99.90;;;;;;5044931;28;20748;-58
2023/04/22 08:01:39;;;;;;;44.63;28.80;;;11.50;99.90;;;;;;5044415;28;20295;-58
2023/04/22 08:04:07;;;;;;;42.37;28.30;;;11.70;99.90;;;;;;5049262;28;20598;-58
2023/04/22 08:06:35;;;;;;;40.67;27.17;;;12.00;99.90;;;;;;5045238;28;20236;-57
2023/04/22 08:09:04;;;;;;;43.37;27.83;;;12.20;99.90;;;;;;5049960;28;20235;-58
2023/04/22 08:11:32;;;;;;;39.20;27.33;;;12.40;99.90;;;;;;5049489;28;20228;-58
2023/04/22 08:14:00;;;;;;;40.00;27.07;;;12.70;99.90;;;;;;5049013;28;20239;-58
2023/04/22 08:16:30;;;;;;;40.83;26.30;;;13.00;99.90;;;;;;5046237;28;20678;-58
2023/04/22 08:18:58;;;;;;;38.80;25.00;;;13.30;99.90;;;;;;5047088;28;20287;-58
2023/04/22 08:21:27;;;;;;;32.40;22.03;;;13.60;99.90;;;;;;5045583;28;20229;-58
2023/04/22 08:23:55;;;;;;;35.70;22.60;;;13.90;99.90;;;;;;5045519;28;20229;-57
2023/04/22 08:26:24;;;;;;;32.97;22.63;;;14.10;99.90;;;;;;5045674;28;20223;-58
2023/04/22 08:28:52;;;;;;;30.33;21.90;;;14.00;99.90;;;;;;5043189;28;20247;-57
2023/04/22 08:31:21;;;;;;;33.20;22.87;;;13.90;99.90;;;;;;5041214;28;20907;-58
2023/04/22 08:33:50;;;;;;;33.67;21.87;;;13.80;99.90;;;;;;5047385;28;20308;-58
2023/04/22 08:36:21;;;;;;;32.13;21.93;;;13.80;99.90;;;;;;5043983;28;20738;-58
2023/04/22 08:38:49;;;;;;;33.97;23.13;;;13.70;99.90;;;;;;5047458;28;20212;-58
2023/04/22 08:41:18;;;;;;;34.20;23.43;;;13.60;99.90;;;;;;5041328;28;20224;-58
2023/04/22 08:43:48;;;;;;;31.23;21.47;;;13.50;99.90;;;;;;5042958;28;20294;-58
2023/04/22 08:46:18;;;;;;;30.77;21.50;;;13.60;99.90;;;;;;5036797;28;20586;-58
2023/04/22 08:48:48;;;;;;;35.30;22.17;;;13.70;99.90;;;;;;5038187;28;20225;-58
2023/04/22 08:51:18;;;;;;;32.10;21.33;;;13.50;99.90;;;;;;5041020;28;20232;-58
2023/04/22 08:53:47;;;;;;;29.77;21.37;;;13.40;99.90;;;;;;5039120;28;20295;-57
2023/04/22 08:56:15;;;;;;;32.70;21.77;;;13.20;99.90;;;;;;5047235;28;20777;-58
2023/04/22 08:58:44;;;;;;;30.93;20.97;;;13.00;99.90;;;;;;5047960;28;20232;-58
2023/04/22 09:01:13;;;;;;;31.30;22.13;;;12.80;99.90;;;;;;5055172;28;20192;-58
2023/04/22 09:03:42;;;;;;;29.50;21.03;;;12.70;99.90;;;;;;5047362;28;20232;-58
2023/04/22 09:06:11;;;;;;;32.90;22.00;;;12.60;99.90;;;;;;5047944;28;20294;-58
2023/04/22 09:08:40;;;;;;;33.50;23.00;;;12.60;99.90;;;;;;5041748;28;20271;-58
2023/04/22 09:11:10;;;;;;;30.87;21.80;;;12.60;99.90;;;;;;5038506;28;20274;-58
2023/04/22 09:13:40;;;;;;;31.50;21.97;;;12.60;99.90;;;;;;5045923;28;20192;-58
2023/04/22 09:16:09;;;;;;;33.23;23.00;;;12.50;99.90;;;;;;5044044;28;20234;-58
2023/04/22 09:18:41;;;;;;;35.83;23.33;;;12.40;99.90;;;;;;5036270;28;20225;-58
2023/04/22 09:21:09;;;;;;;36.20;24.00;;;12.40;99.90;;;;;;5040355;28;20220;-58
2023/04/22 09:23:46;;;;;;;36.83;23.67;;;12.30;99.90;;;;;;5037279;28;20216;-58
2023/04/22 09:26:17;;;;;;;36.10;24.53;;;12.10;99.90;;;;;;5038075;28;20228;-58
2023/04/22 09:28:58;;;;;;;40.23;24.97;;;12.00;99.90;;;;;;5039521;28;20791;-57
2023/04/22 09:31:26;;;;;;;39.00;24.63;;;11.80;99.90;;;;;;5039403;28;20196;-58
2023/04/22 09:33:57;;;;;;;40.33;25.23;;;11.70;99.90;;;;;;5045827;28;20208;-58
2023/04/22 09:36:27;;;;;;;43.53;26.33;;;11.50;99.90;;;;;;5039882;28;20221;-58
2023/04/22 09:38:58;;;;;;;40.33;26.03;;;11.40;99.90;;;;;;5043476;28;20227;-58
2023/04/22 09:41:31;;;;;;;43.70;25.70;;;11.40;99.90;;;;;;5041236;28;20966;-58
2023/04/22 09:44:00;;;;;;;44.37;27.27;;;11.30;99.90;;;;;;5038268;28;20217;-58
2023/04/22 09:46:37;;;;;;;45.17;27.83;;;11.30;99.90;;;;;;5049349;28;20258;-58
2023/04/22 09:49:05;;;;;;;50.10;28.07;;;11.20;99.90;;;;;;5048416;28;20220;-58
2023/04/22 09:51:33;;;;;;;48.03;28.13;;;11.20;99.90;;;;;;5042126;28;20220;-58
2023/04/22 09:54:07;;;;;;;44.00;28.73;;;11.20;99.90;;;;;;5050284;28;20242;-57
2023/04/22 09:56:47;;;;;;;48.83;29.23;;;11.10;99.90;;;;;;5047373;28;20220;-58
2023/04/22 09:59:20;;;;;;;51.07;30.40;;;11.10;99.90;;;;;;5044163;28;20614;-58
2023/04/22 10:01:50;;;;;;;51.20;28.70;;;11.10;99.90;;;;;;5042775;28;20224;-58
2023/04/22 10:04:21;;;;;;;48.33;29.43;;;11.10;99.90;;;;;;5046384;28;20201;-57
2023/04/22 10:06:51;;;;;;;48.23;30.20;;;11.10;99.90;;;;;;5042161;28;20204;-57
2023/04/22 10:09:22;;;;;;;50.97;30.43;;;11.10;99.90;;;;;;5039019;28;20247;-58
2023/04/22 10:11:52;;;;;;;52.93;30.53;;;11.10;99.90;;;;;;5047493;28;20220;-58
2023/04/22 10:14:21;;;;;;;52.50;30.53;;;11.00;99.90;;;;;;5037761;28;20220;-58
2023/04/22 10:16:53;;;;;;;49.50;30.00;;;11.00;99.90;;;;;;5042987;28;20583;-58
2023/04/22 10:19:23;;;;;;;48.90;30.80;;;10.90;99.90;;;;;;5043175;28;20194;-58
2023/04/22 10:21:56;;;;;;;50.60;30.43;;;11.00;99.90;;;;;;5045347;28;20988;-58
2023/04/22 10:24:28;;;;;;;51.77;31.47;;;11.00;99.90;;;;;;5042021;28;20270;-58
2023/04/22 10:27:01;;;;;;;51.37;30.10;;;11.00;99.90;;;;;;5049027;28;20248;-58
2023/04/22 10:29:37;;;;;;;49.83;29.60;;;11.10;99.90;;;;;;5047552;28;20831;-58
2023/04/22 10:32:23;;;;;;;46.40;27.40;;;11.20;99.90;;;;;;5044147;28;20303;-58
2023/04/22 10:35:08;;;;;;;50.53;28.53;;;11.30;99.90;;;;;;5051957;28;20252;-58
2023/04/22 10:37:37;;;;;;;42.63;27.13;;;11.30;99.90;;;;;;5043674;28;20209;-58
2023/04/22 10:40:10;;;;;;;38.07;24.43;;;11.40;99.90;;;;;;5054192;28;20568;-58
2023/04/22 10:42:41;;;;;;;32.47;21.23;;;11.40;99.90;;;;;;5043660;28;20217;-58
2023/04/22 10:45:14;;;;;;;30.47;19.73;;;11.30;99.90;;;;;;5046033;28;20217;-58
2023/04/22 10:47:44;;;;;;;24.30;16.83;;;11.30;99.90;;;;;;5043577;28;20631;-57
2023/04/22 10:50:16;;;;;;;27.03;18.40;;;11.30;99.90;;;;;;5052421;28;20255;-58
2023/04/22 10:52:47;;;;;;;27.93;18.93;;;11.20;99.90;;;;;;5050570;28;20224;-58
2023/04/22 10:55:18;;;;;;;28.27;17.90;;;11.30;99.90;;;;;;5053508;28;20189;-58
2023/04/22 10:57:47;;;;;;;31.60;19.87;;;11.30;99.90;;;;;;5043203;28;20241;-58
2023/04/22 11:00:40;;;;;;;30.50;19.63;;;11.30;99.90;;;;;;5050990;28;20311;-57
2023/04/22 11:03:26;;;;;;;30.00;19.93;;;11.30;99.90;;;;;;5046977;28;20219;-58
2023/04/22 11:06:15;;;;;;;31.83;19.80;;;11.30;99.90;;;;;;5047053;28;20229;-58
2023/04/22 11:08:47;;;;;;;31.50;20.17;;;11.30;99.90;;;;;;5048088;28;20228;-58
2023/04/22 11:11:19;;;;;;;32.30;21.27;;;11.20;99.90;;;;;;5051495;28;20216;-59
2023/04/22 11:13:50;;;;;;;31.87;20.70;;;11.30;99.90;;;;;;5048072;28;20726;-58
2023/04/22 11:16:22;;;;;;;32.97;21.20;;;11.30;99.90;;;;;;5051930;28;20287;-58
2023/04/22 11:18:50;;;;;;;31.37;21.00;;;11.30;99.90;;;;;;5045348;28;20232;-58
2023/04/22 11:21:19;;;;;;;31.23;19.43;;;11.40;99.90;;;;;;5040125;28;20220;-58
2023/04/22 11:23:50;;;;;;;27.83;18.60;;;11.40;99.90;;;;;;5040234;28;20677;-58
2023/04/22 11:26:33;;;;;;;28.10;19.83;;;11.40;99.90;;;;;;5050933;28;20940;-58
2023/04/22 11:29:02;;;;;;;25.87;17.63;;;11.40;99.90;;;;;;5044326;28;20305;-58
2023/04/22 11:31:30;;;;;;;23.87;17.33;;;11.40;99.90;;;;;;5044809;28;20235;-58
2023/04/22 11:33:59;;;;;;;26.60;18.67;;;11.50;99.90;;;;;;5049840;28;20197;-57
2023/04/22 11:36:27;;;;;;;25.47;17.10;;;11.60;99.90;;;;;;5050802;28;20224;-58
2023/04/22 11:38:56;;;;;;;26.40;18.07;;;11.70;99.90;;;;;;5052359;28;20327;-58
2023/04/22 11:41:28;;;;;;;23.20;16.93;;;11.80;99.90;;;;;;5042433;28;20220;-58
2023/04/22 11:43:57;;;;;;;25.10;17.90;;;11.70;99.90;;;;;;5051291;28;20694;-58
2023/04/22 11:46:30;;;;;;;28.90;19.30;;;11.70;99.90;;;;;;5046644;28;20201;-58
2023/04/22 11:49:12;;;;;;;30.63;19.20;;;11.70;99.90;;;;;;5040542;28;20193;-58
2023/04/22 11:51:53;;;;;;;29.73;19.57;;;11.80;99.90;;;;;;5045062;28;20216;-58
2023/04/22 11:54:31;;;;;;;32.93;21.20;;;11.70;99.90;;;;;;5048835;28;20259;-57
2023/04/22 11:57:03;;;;;;;30.30;19.60;;;11.70;99.90;;;;;;5043876;28;20235;-58
2023/04/22 11:59:32;;;;;;;31.93;20.53;;;11.80;99.90;;;;;;5043746;28;20698;-58
2023/04/22 12:02:00;;;;;;;30.87;19.87;;;11.80;99.90;;;;;;5044051;28;20220;-58
2023/04/22 12:04:28;;;;;;;30.90;20.47;;;11.80;99.90;;;;;;5047371;28;20287;-58
2023/04/22 12:06:57;;;;;;;31.30;20.63;;;11.70;99.90;;;;;;5050069;28;20322;-58
2023/04/22 12:09:25;;;;;;;31.23;20.37;;;11.60;99.90;;;;;;5048687;28;20262;-58
2023/04/22 12:11:53;;;;;;;29.43;20.80;;;11.60;99.90;;;;;;5048261;28;20319;-58
2023/04/22 12:14:31;;;;;;;31.87;20.73;;;11.50;99.90;;;;;;5050785;28;20220;-57
2023/04/22 12:17:03;;;;;;;30.83;20.37;;;11.70;99.90;;;;;;5051467;28;20224;-58
2023/04/22 12:19:31;;;;;;;31.47;21.27;;;11.80;99.90;;;;;;5050419;28;20197;-57
2023/04/22 12:21:59;;;;;;;28.27;18.67;;;11.90;99.90;;;;;;5046154;28;20188;-58
2023/04/22 12:24:28;;;;;;;23.00;17.77;;;12.00;99.90;;;;;;5045615;28;20232;-58
2023/04/22 12:26:57;;;;;;;27.90;19.57;;;12.00;99.90;;;;;;5046604;28;20242;-58
2023/04/22 12:29:31;;;;;;;26.97;20.07;;;11.90;99.90;;;;;;5048841;28;20282;-58
2023/04/22 12:31:59;;;;;;;25.87;18.30;;;11.90;99.90;;;;;;5049197;28;20220;-58
2023/04/22 12:34:28;;;;;;;22.60;16.23;;;11.80;99.90;;;;;;5047619;28;20246;-58
2023/04/22 12:36:56;;;;;;;18.90;14.57;;;11.70;99.90;;;;;;5050999;28;20196;-58
2023/04/22 12:39:24;;;;;;;20.90;15.17;;;11.70;99.90;;;;;;5049261;28;20212;-58
2023/04/22 12:41:53;;;;;;;18.70;14.77;;;11.60;99.90;;;;;;5045967;28;20216;-57
2023/04/22 12:44:21;;;;;;;19.73;14.20;;;11.40;99.90;;;;;;5048277;28;20720;-57
2023/04/22 12:46:53;;;;;;;19.47;14.13;;;11.40;99.90;;;;;;5044340;28;20228;-57